Flight Track Log - Related Links

Times and Time Zones

All times are in EDT time to prevent confusion due to time zone crossing. See the ASQ4315 flight status page for this flight to view local times or setup timezone preferences in your user account.

Time Position Orientation Groundspeed Altitude Reporting Facility
EDT Latitude Longitude Course Direction KTS MPH feet Rate Location/Type
01:16PM 39.3167 -94.7000 47° Northeast 159 183 1,600  Level Kansas City TRACON
01:17PM 39.3667 -94.6500 38° Northeast 214 246 3,400 1,632 Climbing Kansas City TRACON
01:18PM 39.4028 -94.6242 29° Northeast 242 278 4,700 2,059 Climbing Kansas City Center
01:19PM 39.4581 -94.5683 38° Northeast 260 299 6,900 1,984 Climbing Kansas City Center
01:20PM 39.5067 -94.4969 49° Northeast 273 314 8,800 1,920 Climbing Kansas City Center
01:21PM 39.6697 -94.2458 47° Northeast  Level FlightAware Approximate
01:21PM 39.5700 -94.4106 46° Northeast 290 334 10,900  Level Kansas City Center
01:22PM 39.6292 -94.3286 47° Northeast 326 375 12,100 1,392 Climbing Kansas City Center
01:23PM 39.7022 -94.2272 47° Northeast 341 392 13,800 1,306 Climbing Kansas City Center
01:24PM 39.7697 -94.1383 45° Northeast 359 413 14,800 1,024 Climbing Kansas City Center
01:25PM 39.8453 -94.0308 48° Northeast 379 436 15,900 1,238 Climbing Kansas City Center
01:26PM 39.9164 -93.9256 49° Northeast 385 443 17,400 1,403 Climbing Kansas City Center
01:27PM 39.9842 -93.8194 50° Northeast 385 443 18,800 1,463 Climbing Kansas City Center
01:28PM 40.0536 -93.6756 58° Northeast 390 449 20,400 1,548 Climbing Kansas City Center
01:29PM 40.0847 -93.5364 74° East 399 459 22,000 1,525 Climbing Kansas City Center
01:30PM 40.1169 -93.3972 73° East 400 460 23,500 1,392 Climbing Kansas City Center
01:31PM 40.1489 -93.2564 73° East 403 464 24,900 1,381 Climbing Kansas City Center
01:32PM 40.1811 -93.1161 73° East 404 465 26,400 1,584 Climbing Kansas City Center
01:33PM 40.2206 -92.9442 73° East 404 465 28,200 1,210 Climbing Kansas City Center
01:34PM 40.2497 -92.8094 74° East 403 464 28,900 344 Climbing Kansas City Center
01:35PM 40.2878 -92.6397 74° East 427 491 28,900  Level Kansas City Center
01:36PM 40.3247 -92.4839 73° East 451 519 28,900 384 Level Kansas City Center
01:37PM 40.3606 -92.3083 75° East 481 554 29,700 912 Climbing Kansas City Center
01:38PM 40.3958 -92.1433 74° East 480 552 30,800 1,165 Climbing Kansas City Center
01:39PM 40.4244 -92.0144 74° East 469 540 31,700 1,176 Climbing Chicago Center
01:40PM 40.4586 -91.8517 75° East 469 540 32,800 581 Climbing Chicago Center
01:41PM 40.4947 -91.6867 74° East 469 540 32,900 48 Climbing Chicago Center
01:42PM 40.5306 -91.5108 75° East 495 570 32,900  Level Chicago Center
01:43PM 40.5767 -91.3336 71° East 513 590 32,900 -48 Level Chicago Center
01:44PM 40.6433 -91.1439 65° Northeast 516 594 32,800  Descending Chicago Center
01:45PM 40.6981 -90.9783 66° East 496 571 32,900 48 Climbing Chicago Center
01:46PM 40.7542 -90.8103 66° East 497 572 32,900  Level Chicago Center
01:47PM 40.8131 -90.6389 66° East 508 585 32,900 -432 Level Chicago Center
01:48PM 40.8828 -90.4297 66° East 512 589 32,000 -1,161 Descending Chicago Center
01:49PM 40.9414 -90.2531 66° East 516 594 30,500 -1,645 Descending Chicago Center
01:50PM 40.9997 -90.0767 66° East 516 594 28,600 -1,887 Descending Chicago Center
01:51PM 41.0589 -89.8983 66° East 518 596 26,600 -1,887 Descending Chicago Center
01:52PM 41.1247 -89.7256 63° Northeast 520 598 24,700 -1,887 Descending Chicago Center
01:53PM 41.1892 -89.5603 63° Northeast 503 579 22,700 -1,935 Descending Chicago Center
01:54PM 41.2497 -89.3992 63° Northeast 491 565 20,700 -2,177 Descending Chicago Center
01:56PM 41.3067 -89.2469 63° Northeast 471 542 18,200 -2,565 Descending Chicago Center
01:57PM 41.3719 -89.0814 62° Northeast 429 494 15,400 -2,544 Descending Chicago Center
01:58PM 41.4228 -88.9458 63° Northeast 412 474 12,900 -1,619 Descending Chicago Center
01:59PM 41.4753 -88.8017 64° Northeast 389 448 12,000 -432 Descending Chicago Center
02:00PM 41.5344 -88.6836 56° Northeast 383 441 12,000  Level Chicago Center
02:01PM 41.6014 -88.5533 55° Northeast 392 451 12,000 -96 Level Chicago Center
02:02PM 41.6619 -88.4322 56° Northeast 393 452 11,800 -528 Descending Chicago Center
02:03PM 41.7258 -88.3064 56° Northeast 383 441 10,900 -871 Descending Chicago Center
02:04PM 41.7836 -88.1917 56° Northeast 372 428 10,000 -435 Descending Chicago Center
02:05PM 41.8314 -88.0747 61° Northeast 362 417 10,000  Level Chicago Center
02:06PM 41.8589 -87.9347 75° East 361 415 10,000 -56 Level Chicago Center
02:07PM 41.8833 -87.8500 69° East 313 360 9,900 -857 Descending Chicago TRACON
02:08PM 41.8833 -87.7333 90° East 297 342 8,500 -1,250 Descending Chicago TRACON
02:09PM 41.8833 -87.6333 90° East 280 322 7,400 -1,300 Descending Chicago TRACON
02:10PM 41.8833 -87.5333 90° East 263 303 5,900 -1,190 Descending Chicago TRACON
02:11PM 41.9167 -87.4667 56° Northeast 246 283 5,000 -397 Descending Chicago TRACON
02:12PM 41.9667 -87.5000 334° Northwest 220 253 5,100  Climbing Chicago TRACON
02:13PM 41.9667 -87.5667 270° West 212 244 5,000 -350 Descending Chicago TRACON
02:14PM 41.9667 -87.6500 270° West 193 222 4,400 -850 Descending Chicago TRACON
02:15PM 41.9667 -87.7167 270° West 190 219 3,300 -1,095 Descending Chicago TRACON
02:16PM 41.9667 -87.8000 270° West 176 203 2,100 -905 Descending Chicago TRACON
02:17PM 41.9667 -87.8500 270° West 140 161 1,400 -510 Descending Chicago TRACON
02:18PM 41.9642 -87.9175 267° West 141 162 800 -387 Descending Chicago Center

Login

Don't have an account? Register now (free) for customized features, flight alerts, and more!